Time;durP1;ratioP1;P1;durP2;ratioP2;P2;SDS_P1;SDS_P2;PMS_P1;PMS_P2;Temp;Humidity;BMP_temperature;BMP_pressure;BME280_temperature;BME280_humidity;BME280_pressure;Samples;Min_cycle;Max_cycle;Signal;HPM_P1;HPM_P2
2024/03/10 00:01:32;;;;;;;56.33;24.77;;;;;;;0.14;69.89;100541.02;1774021;80;21100;-74
2024/03/10 00:04:02;;;;;;;61.58;26.17;;;;;;;0.12;69.87;100542.98;1773921;80;21174;-74
2024/03/10 00:06:32;;;;;;;54.95;23.70;;;;;;;0.09;69.94;100541.40;1774570;80;21139;-74
2024/03/10 00:09:01;;;;;;;51.70;23.62;;;;;;;0.08;70.08;100544.22;1774515;80;21111;-74
2024/03/10 00:11:30;;;;;;;62.27;23.27;;;;;;;0.10;70.19;100539.56;1774073;80;21154;-74
2024/03/10 00:14:00;;;;;;;53.87;22.35;;;;;;;0.10;70.16;100541.77;1774527;80;21103;-73
2024/03/10 00:16:31;;;;;;;53.45;23.05;;;;;;;0.10;70.19;100540.91;1773920;80;21123;-75
2024/03/10 00:19:00;;;;;;;54.50;23.40;;;;;;;0.10;70.20;100539.56;1773756;80;21632;-74
2024/03/10 00:21:30;;;;;;;51.02;22.75;;;;;;;0.10;70.22;100535.03;1737222;82;21123;-73
2024/03/10 00:24:00;;;;;;;57.00;23.87;;;;;;;0.08;70.30;100530.27;1772026;80;21114;-74
2024/03/10 00:26:30;;;;;;;58.83;24.05;;;;;;;0.07;70.32;100530.39;1773177;80;21087;-73
2024/03/10 00:28:59;;;;;;;60.17;24.60;;;;;;;0.06;70.35;100530.02;1772665;80;21190;-75
2024/03/10 00:31:28;;;;;;;63.90;25.15;;;;;;;0.04;70.46;100522.07;1773691;80;21545;-73
2024/03/10 00:33:57;;;;;;;51.13;23.27;;;;;;;0.04;70.44;100530.64;1774217;79;21139;-73
2024/03/10 00:36:25;;;;;;;59.53;24.82;;;;;;;-0.01;70.56;100530.50;1773601;79;21161;-74
2024/03/10 00:38:55;;;;;;;58.13;23.87;;;;;;;0.02;70.67;100532.61;1774072;80;21158;-74
2024/03/10 00:41:23;;;;;;;51.83;22.62;;;;;;;0.01;70.67;100533.09;1774025;79;21155;-74
2024/03/10 00:43:53;;;;;;;48.58;21.23;;;;;;;0.01;70.64;100528.20;1773986;79;21221;-73
2024/03/10 00:46:22;;;;;;;54.05;21.48;;;;;;;-0.02;70.65;100521.20;1740279;82;21584;-74
2024/03/10 00:48:51;;;;;;;55.73;23.73;;;;;;;-0.03;70.76;100519.48;1776424;80;21123;-73
2024/03/10 00:51:21;;;;;;;56.33;23.47;;;;;;;-0.03;70.85;100519.48;1774117;79;21127;-74
2024/03/10 00:53:50;;;;;;;52.33;22.40;;;;;;;-0.04;70.82;100519.98;1772208;79;21130;-74
2024/03/10 00:56:19;;;;;;;50.85;22.42;;;;;;;-0.04;70.85;100520.47;1773779;79;21565;-74
2024/03/10 00:58:48;;;;;;;51.68;22.15;;;;;;;-0.06;70.85;100519.74;1772258;79;21103;-74
2024/03/10 01:01:19;;;;;;;53.55;22.67;;;;;;;-0.09;70.91;100514.13;1774060;79;21095;-74
2024/03/10 01:03:48;;;;;;;53.17;21.45;;;;;;;-0.07;71.01;100510.81;1774721;81;21111;-73
2024/03/10 01:06:17;;;;;;;49.13;21.25;;;;;;;-0.07;71.03;100509.95;1774765;81;21111;-74
2024/03/10 01:08:46;;;;;;;46.15;20.68;;;;;;;-0.06;71.09;100511.66;1740092;82;21171;-74
2024/03/10 01:11:16;;;;;;;51.33;21.12;;;;;;;-0.06;71.15;100500.89;1772491;79;21628;-74
2024/03/10 01:13:46;;;;;;;50.55;20.27;;;;;;;-0.06;71.16;100500.40;1772429;79;21206;-74
2024/03/10 01:16:16;;;;;;;50.88;19.87;;;;;;;-0.07;71.17;100501.38;1772980;79;21143;-74
2024/03/10 01:18:44;;;;;;;48.30;19.12;;;;;;;-0.08;71.21;100502.36;1774602;81;21582;-72
2024/03/10 01:21:14;;;;;;;48.05;19.25;;;;;;;-0.10;71.19;100502.98;1772100;79;21114;-73
2024/03/10 01:23:43;;;;;;;47.20;19.32;;;;;;;-0.12;71.22;100496.02;1774003;79;21166;-73
2024/03/10 01:26:12;;;;;;;40.78;18.73;;;;;;;-0.13;71.33;100495.66;1772750;80;21615;-74
2024/03/10 01:28:41;;;;;;;48.83;19.02;;;;;;;-0.15;71.39;100492.23;1773481;80;21692;-74
2024/03/10 01:31:10;;;;;;;44.58;19.27;;;;;;;-0.14;71.39;100487.21;1773913;80;21570;-75
2024/03/10 01:33:39;;;;;;;45.40;20.82;;;;;;;-0.18;71.38;100479.88;1774726;80;21131;-74
2024/03/10 01:36:12;;;;;;;52.85;22.95;;;;;;;-0.20;71.50;100488.57;1773453;79;21131;-74
2024/03/10 01:38:41;;;;;;;46.42;22.55;;;;;;;-0.21;71.61;100487.35;1774026;80;21238;-75
2024/03/10 01:41:12;;;;;;;47.95;22.15;;;;;;;-0.20;71.66;100480.98;1772252;79;21131;-73
2024/03/10 01:43:47;;;;;;;45.43;20.27;;;;;;;-0.22;71.68;100480.25;1774652;79;21122;-74
2024/03/10 01:46:15;;;;;;;49.23;23.35;;;;;;;-0.25;71.75;100485.89;1774631;80;21158;-74
2024/03/10 01:48:44;;;;;;;52.38;23.62;;;;;;;-0.29;71.78;100481.75;1773625;79;21177;-74
2024/03/10 01:51:16;;;;;;;54.60;23.60;;;;;;;-0.30;71.95;100476.00;1736345;82;21159;-75
2024/03/10 01:53:45;;;;;;;53.10;24.65;;;;;;;-0.32;72.03;100474.28;1772100;79;21137;-74
2024/03/10 01:56:37;;;;;;;52.05;23.98;;;;;;;-0.32;72.12;100475.63;1773548;79;21091;-74
2024/03/10 01:59:07;;;;;;;55.20;24.00;;;;;;;-0.32;72.25;100476.12;1786599;80;21178;-75
2024/03/10 02:01:36;;;;;;;53.78;23.92;;;;;;;-0.33;72.36;100471.23;1749180;82;21139;-73
2024/03/10 02:04:26;;;;;;;58.35;23.62;;;;;;;-0.31;72.40;100473.80;1757532;81;21589;-74
2024/03/10 02:06:55;;;;;;;49.35;22.65;;;;;;;-0.32;72.38;100472.08;1809919;79;21125;-74
2024/03/10 02:09:24;;;;;;;50.35;22.30;;;;;;;-0.33;72.44;100477.96;1809927;79;21142;-75
2024/03/10 02:11:54;;;;;;;54.13;23.05;;;;;;;-0.33;72.57;100471.23;1810071;79;21166;-73
2024/03/10 02:14:25;;;;;;;51.33;22.87;;;;;;;-0.34;72.53;100468.17;1810091;79;21106;-75
2024/03/10 02:16:54;;;;;;;51.75;22.65;;;;;;;-0.34;72.56;100468.17;1809818;79;21607;-73
2024/03/10 02:19:24;;;;;;;53.60;22.75;;;;;;;-0.34;72.60;100468.17;1809863;79;21158;-73
2024/03/10 02:21:53;;;;;;;51.48;22.67;;;;;;;-0.35;72.62;100466.95;1781471;79;21095;-75
2024/03/10 02:24:28;;;;;;;51.73;22.67;;;;;;;-0.40;72.70;100465.98;1809800;79;21573;-74
2024/03/10 02:26:57;;;;;;;51.73;22.42;;;;;;;-0.42;72.85;100467.09;1809975;79;21138;-74
2024/03/10 02:29:26;;;;;;;60.15;22.67;;;;;;;-0.42;72.92;100465.75;1809914;79;21118;-75
2024/03/10 02:48:40;;;;;;;52.88;21.75;;;;;;;-0.44;72.90;100459.63;1810703;79;20189;-74
2024/03/10 02:51:09;;;;;;;50.67;21.55;;;;;;;-0.45;72.98;100464.66;1809969;79;21569;-73
2024/03/10 02:53:38;;;;;;;49.08;21.25;;;;;;;-0.45;73.01;100460.13;1811434;79;21158;-73
2024/03/10 02:56:07;;;;;;;53.58;22.05;;;;;;;-0.45;73.05;100455.23;1810700;79;21726;-73
2024/03/10 02:58:39;;;;;;;46.30;20.20;;;;;;;-0.43;73.22;100452.78;1811037;79;21138;-73
2024/03/10 03:01:11;;;;;;;51.95;20.20;;;;;;;-0.39;73.24;100451.55;1809973;79;21083;-73
2024/03/10 03:03:40;;;;;;;41.63;17.67;;;;;;;-0.37;73.24;100458.16;1810527;79;21173;-74
2024/03/10 03:06:10;;;;;;;39.88;17.48;;;;;;;-0.34;73.36;100452.02;1810512;79;21574;-74
2024/03/10 03:08:40;;;;;;;38.02;17.07;;;;;;;-0.31;73.47;100444.19;1810196;79;21169;-73
2024/03/10 03:11:09;;;;;;;36.70;18.05;;;;;;;-0.22;73.61;100445.25;1809698;78;21545;-72
2024/03/10 03:13:39;;;;;;;32.30;15.45;;;;;;;-0.18;73.53;100448.91;1809994;79;21607;-74
2024/03/10 03:16:09;;;;;;;28.42;13.15;;;;;;;-0.13;73.63;100447.18;1809911;79;21573;-74
2024/03/10 03:18:40;;;;;;;32.25;14.18;;;;;;;-0.07;73.68;100442.62;1782120;79;21654;-73
2024/03/10 03:21:09;;;;;;;28.50;13.05;;;;;;;0.03;73.73;100436.86;1810184;79;21110;-73
2024/03/10 03:23:38;;;;;;;25.85;11.93;;;;;;;0.13;73.68;100439.63;1810453;79;21576;-73
2024/03/10 03:26:07;;;;;;;27.98;12.50;;;;;;;0.23;73.60;100436.52;1810490;79;21130;-74
2024/03/10 03:28:37;;;;;;;27.37;12.23;;;;;;;0.30;73.45;100430.96;1809925;79;21161;-73
2024/03/10 03:31:06;;;;;;;24.70;12.07;;;;;;;0.38;73.17;100426.27;1810128;79;21111;-74
2024/03/10 03:33:36;;;;;;;27.85;13.03;;;;;;;0.43;73.00;100425.38;1811568;79;21138;-74
2024/03/10 03:36:05;;;;;;;27.70;13.25;;;;;;;0.49;72.81;100428.89;1811442;79;21106;-75
2024/03/10 03:38:35;;;;;;;30.52;13.28;;;;;;;0.51;72.60;100426.42;1810540;79;21126;-71
2024/03/10 03:41:05;;;;;;;27.45;12.85;;;;;;;0.55;72.46;100418.42;1809943;78;21078;-72
2024/03/10 03:43:35;;;;;;;30.12;11.57;;;;;;;0.57;72.28;100423.19;1811380;78;21157;-74
2024/03/10 03:46:04;;;;;;;25.85;12.35;;;;;;;0.60;72.11;100412.63;1810680;78;21557;-74
2024/03/10 03:48:34;;;;;;;31.75;12.88;;;;;;;0.61;71.99;100420.59;1810811;79;21149;-74
2024/03/10 03:51:05;;;;;;;29.60;12.53;;;;;;;0.63;71.89;100419.11;1810230;79;21562;-72
2024/03/10 03:53:34;;;;;;;25.88;12.45;;;;;;;0.63;71.80;100413.71;1811946;78;21150;-74
2024/03/10 03:56:03;;;;;;;29.57;12.47;;;;;;;0.64;71.76;100412.23;1810333;79;21099;-73
2024/03/10 03:58:34;;;;;;;28.15;12.93;;;;;;;0.67;71.66;100409.80;1811181;79;21161;-74
2024/03/10 04:01:04;;;;;;;26.23;12.30;;;;;;;0.68;71.62;100408.80;1810214;79;21368;-75
2024/03/10 04:03:33;;;;;;;28.83;12.43;;;;;;;0.70;71.56;100408.67;1809983;79;21122;-73
2024/03/10 04:06:14;;;;;;;27.22;12.68;;;;;;;0.72;71.47;100401.30;1810323;79;21126;-74
2024/03/10 04:09:04;;;;;;;28.40;12.93;;;;;;;0.73;71.41;100406.56;1708870;83;21089;-73
2024/03/10 04:11:32;;;;;;;29.95;13.10;;;;;;;0.72;71.35;100408.89;1680067;84;21270;-74
2024/03/10 04:14:02;;;;;;;31.12;14.10;;;;;;;0.71;71.43;100408.53;1661274;85;21182;-75
2024/03/10 04:16:31;;;;;;;31.33;13.80;;;;;;;0.73;71.31;100405.21;1681146;84;21143;-74
2024/03/10 04:19:04;;;;;;;28.12;13.22;;;;;;;0.74;71.25;100412.31;1679844;85;21134;-74
2024/03/10 04:21:32;;;;;;;33.02;14.18;;;;;;;0.74;71.13;100410.11;1680001;85;21170;-74
2024/03/10 04:24:00;;;;;;;29.10;14.33;;;;;;;0.71;71.14;100413.93;1680138;85;21578;-74
2024/03/10 04:26:29;;;;;;;29.63;13.50;;;;;;;0.72;71.20;100417.48;1680546;85;21606;-75
2024/03/10 04:29:00;;;;;;;29.65;13.22;;;;;;;0.73;71.16;100416.48;1684276;84;21167;-75
2024/03/10 04:31:28;;;;;;;26.52;12.82;;;;;;;0.70;71.00;100417.61;1682070;85;21606;-73
2024/03/10 04:33:57;;;;;;;28.52;12.63;;;;;;;0.71;71.07;100419.32;1681291;84;21154;-74
2024/03/10 04:36:28;;;;;;;26.02;12.93;;;;;;;0.70;71.03;100424.36;1680029;85;21152;-74
2024/03/10 04:38:57;;;;;;;27.27;12.88;;;;;;;0.68;70.95;100421.44;1679849;85;21222;-74
2024/03/10 04:41:27;;;;;;;35.10;13.88;;;;;;;0.63;70.94;100425.84;1679987;84;21126;-74
2024/03/10 04:43:56;;;;;;;30.23;13.35;;;;;;;0.57;70.90;100427.73;1680134;85;21178;-74
2024/03/10 04:46:27;;;;;;;27.40;13.72;;;;;;;0.53;71.08;100429.83;1681948;85;21158;-74
2024/03/10 04:48:57;;;;;;;28.80;13.75;;;;;;;0.52;71.28;100434.86;1680796;85;21191;-74
2024/03/10 04:51:26;;;;;;;27.17;12.68;;;;;;;0.52;71.36;100421.88;1679885;85;21214;-74
2024/03/10 04:53:55;;;;;;;25.72;13.32;;;;;;;0.54;71.38;100434.24;1681743;84;21174;-73
2024/03/10 04:56:24;;;;;;;28.25;13.60;;;;;;;0.54;71.37;100430.20;1680980;84;21197;-74
2024/03/10 04:58:53;;;;;;;27.77;14.10;;;;;;;0.55;71.38;100429.70;1679859;85;21668;-73
2024/03/10 05:01:23;;;;;;;36.77;16.50;;;;;;;0.54;71.40;100426.64;1683741;85;21610;-74
2024/03/10 05:03:53;;;;;;;34.05;15.95;;;;;;;0.53;71.42;100435.72;1682984;85;21139;-74
2024/03/10 05:06:22;;;;;;;38.13;18.50;;;;;;;0.53;71.47;100434.38;1680068;85;21174;-74
2024/03/10 05:08:51;;;;;;;38.45;17.55;;;;;;;0.55;71.51;100435.09;1679873;85;21590;-73
2024/03/10 05:11:21;;;;;;;39.42;17.77;;;;;;;0.53;71.50;100432.53;1679828;85;21107;-73
2024/03/10 05:13:50;;;;;;;43.15;17.27;;;;;;;0.51;71.52;100439.89;1680133;85;21173;-74
2024/03/10 05:16:19;;;;;;;36.03;16.15;;;;;;;0.48;71.60;100439.31;1680989;85;21558;-74
2024/03/10 05:18:47;;;;;;;38.28;16.30;;;;;;;0.45;71.74;100439.08;1681664;85;21163;-75
2024/03/10 05:21:17;;;;;;;41.28;17.15;;;;;;;0.44;71.92;100441.91;1679941;85;21586;-73
2024/03/10 05:23:46;;;;;;;33.85;15.23;;;;;;;0.44;72.01;100449.50;1680957;84;21178;-74
2024/03/10 05:26:16;;;;;;;31.95;15.25;;;;;;;0.47;72.13;100453.77;1679880;85;21594;-74
2024/03/10 05:28:46;;;;;;;34.13;15.85;;;;;;;0.48;72.19;100448.25;1679951;85;21138;-73
2024/03/10 05:31:33;;;;;;;37.65;15.23;;;;;;;0.50;72.22;100448.12;1679909;85;21146;-73
2024/03/10 05:34:03;;;;;;;31.80;15.55;;;;;;;0.53;72.25;100457.28;1680336;85;21194;-74
2024/03/10 05:36:33;;;;;;;30.75;14.65;;;;;;;0.55;72.28;100462.91;1683248;84;21629;-74
2024/03/10 05:39:02;;;;;;;29.42;14.20;;;;;;;0.62;72.36;100456.48;1681833;85;21170;-72
2024/03/10 05:41:33;;;;;;;30.30;14.35;;;;;;;0.70;72.39;100458.06;1677161;85;21139;-74
2024/03/10 05:44:03;;;;;;;30.00;13.95;;;;;;;0.77;72.25;100454.34;1683723;84;21586;-75
2024/03/10 05:46:33;;;;;;;28.35;14.25;;;;;;;0.83;72.08;100448.41;1680017;85;21143;-74
2024/03/10 05:49:03;;;;;;;28.05;12.90;;;;;;;0.89;71.92;100452.77;1679854;85;21154;-75
2024/03/10 05:51:31;;;;;;;27.98;13.10;;;;;;;0.96;71.86;100450.39;1679847;85;21146;-75
2024/03/10 05:54:00;;;;;;;30.32;13.10;;;;;;;1.04;71.74;100449.22;1680167;85;21138;-74
2024/03/10 05:56:29;;;;;;;29.23;13.30;;;;;;;1.10;71.53;100444.63;1681732;85;21748;-74
2024/03/10 05:59:00;;;;;;;30.27;13.55;;;;;;;1.18;71.39;100447.98;1679898;85;21155;-72
2024/03/10 06:01:29;;;;;;;30.52;13.18;;;;;;;1.25;71.20;100443.75;1681643;85;21261;-74
2024/03/10 06:03:58;;;;;;;24.05;12.53;;;;;;;1.31;71.01;100439.19;1679920;85;21610;-72
2024/03/10 06:06:29;;;;;;;26.35;12.55;;;;;;;1.36;70.86;100439.63;1679974;85;21131;-75
2024/03/10 06:08:57;;;;;;;25.97;13.03;;;;;;;1.41;70.62;100433.31;1679858;85;21155;-74
2024/03/10 06:11:28;;;;;;;31.45;14.60;;;;;;;1.46;70.50;100439.66;1679812;85;21123;-75
2024/03/10 06:13:57;;;;;;;33.75;14.58;;;;;;;1.53;70.40;100440.81;1680142;85;21602;-74
2024/03/10 06:16:26;;;;;;;23.62;12.07;;;;;;;1.61;70.26;100442.81;1680882;85;21338;-74
2024/03/10 06:27:03;;;;;;;21.90;11.78;;;;;;;1.91;69.37;100431.90;1679949;85;21186;-74
2024/03/10 06:29:32;;;;;;;23.77;11.70;;;;;;;1.98;69.06;100438.47;1681079;85;21155;-75
2024/03/10 06:32:03;;;;;;;22.32;11.40;;;;;;;2.05;68.92;100448.22;1682021;85;21138;-74
2024/03/10 06:34:32;;;;;;;23.87;10.30;;;;;;;2.10;68.67;100449.50;1681817;85;21206;-74
2024/03/10 06:37:01;;;;;;;23.42;10.35;;;;;;;2.16;68.32;100446.23;1684296;85;21150;-73
2024/03/10 06:39:31;;;;;;;25.15;10.43;;;;;;;2.23;67.99;100443.31;1680878;85;21139;-74
2024/03/10 06:42:00;;;;;;;22.73;11.22;;;;;;;2.32;67.75;100439.38;1683756;84;21119;-74
2024/03/10 06:44:30;;;;;;;22.50;10.98;;;;;;;2.39;67.42;100444.08;1680118;84;21190;-74
2024/03/10 06:47:00;;;;;;;24.25;11.22;;;;;;;2.47;66.72;100444.70;1680167;85;21654;-74
2024/03/10 06:49:29;;;;;;;22.45;10.75;;;;;;;2.55;66.45;100445.68;1684305;84;21135;-75
2024/03/10 06:51:58;;;;;;;25.12;11.40;;;;;;;2.62;66.30;100445.98;1681392;85;21158;-74
2024/03/10 06:54:26;;;;;;;25.97;11.08;;;;;;;2.69;66.08;100443.55;1682295;85;21142;-74
2024/03/10 06:56:55;;;;;;;23.50;11.63;;;;;;;2.74;65.71;100440.76;1681462;85;21214;-74
2024/03/10 06:59:25;;;;;;;21.35;10.68;;;;;;;2.81;65.53;100445.94;1680092;85;21233;-74
2024/03/10 07:01:55;;;;;;;26.48;11.43;;;;;;;2.88;65.42;100450.77;1680990;85;21186;-74
2024/03/10 07:04:25;;;;;;;21.35;11.05;;;;;;;2.95;65.20;100450.02;1683273;85;21131;-74
2024/03/10 07:06:55;;;;;;;22.67;11.10;;;;;;;3.03;64.93;100452.84;1680857;85;21138;-75
2024/03/10 07:09:25;;;;;;;27.00;12.07;;;;;;;3.09;64.81;100452.75;1682215;84;21146;-74
2024/03/10 07:11:54;;;;;;;24.75;11.68;;;;;;;3.16;64.50;100457.92;1680244;85;21630;-74
2024/03/10 07:14:26;;;;;;;26.82;12.37;;;;;;;3.22;64.31;100460.03;1679971;85;21143;-75
2024/03/10 07:16:55;;;;;;;25.80;12.50;;;;;;;3.28;63.79;100455.41;1679990;85;21174;-74
2024/03/10 07:19:24;;;;;;;26.68;13.22;;;;;;;3.33;63.24;100449.55;1681030;85;21590;-73
2024/03/10 07:21:54;;;;;;;26.40;13.00;;;;;;;3.36;63.15;100447.89;1680071;85;21178;-73
2024/03/10 07:24:23;;;;;;;29.82;13.85;;;;;;;3.39;63.06;100451.15;1681033;84;21228;-73
2024/03/10 07:26:52;;;;;;;29.35;13.32;;;;;;;3.43;62.96;100459.33;1648934;85;21158;-73
2024/03/10 07:29:23;;;;;;;30.30;15.35;;;;;;;3.47;62.91;100459.38;1681759;85;21150;-73
2024/03/10 07:31:52;;;;;;;33.42;13.85;;;;;;;3.53;62.64;100456.56;1680125;85;21570;-73
2024/03/10 07:34:22;;;;;;;29.23;13.30;;;;;;;3.58;62.22;100463.73;1680810;85;21150;-74
2024/03/10 07:36:50;;;;;;;31.87;14.07;;;;;;;3.64;62.20;100461.77;1680130;85;21182;-73
2024/03/10 07:39:21;;;;;;;25.17;12.82;;;;;;;3.69;62.05;100469.45;1679991;85;21170;-75
2024/03/10 07:41:51;;;;;;;27.30;13.15;;;;;;;3.74;62.01;100470.69;1682011;84;21190;-74
2024/03/10 07:44:20;;;;;;;25.65;12.63;;;;;;;3.81;61.89;100466.88;1683585;85;21202;-74
2024/03/10 07:46:50;;;;;;;26.73;13.38;;;;;;;3.85;61.72;100465.56;1684134;84;21622;-74
2024/03/10 07:49:19;;;;;;;30.20;13.95;;;;;;;3.91;61.59;100463.63;1680796;85;21222;-73
2024/03/10 07:51:48;;;;;;;27.90;13.05;;;;;;;3.97;61.55;100463.52;1680140;85;21269;-74
2024/03/10 07:54:17;;;;;;;24.60;11.33;;;;;;;4.02;61.48;100462.05;1681025;85;21210;-74
2024/03/10 07:56:47;;;;;;;26.17;12.13;;;;;;;4.07;61.36;100463.79;1680089;85;21163;-75
2024/03/10 07:59:21;;;;;;;23.05;10.98;;;;;;;4.14;61.18;100463.52;1680691;85;21139;-74
2024/03/10 08:01:50;;;;;;;24.77;11.50;;;;;;;4.21;60.91;100465.11;1681838;85;21767;-75
2024/03/10 08:04:19;;;;;;;27.90;11.95;;;;;;;4.28;60.82;100462.62;1679814;85;21138;-73
2024/03/10 08:06:49;;;;;;;26.33;12.23;;;;;;;4.40;60.67;100465.45;1680016;85;21175;-74
2024/03/10 08:09:19;;;;;;;25.70;12.25;;;;;;;4.71;60.18;100452.32;1680116;84;21155;-74
2024/03/10 08:11:48;;;;;;;22.85;11.45;;;;;;;5.18;59.21;100456.86;1666210;85;21154;-74
2024/03/10 08:14:20;;;;;;;24.07;11.75;;;;;;;5.77;58.28;100460.53;1681009;84;21159;-74
2024/03/10 08:16:48;;;;;;;26.20;11.90;;;;;;;6.27;57.36;100459.67;1680857;85;21146;-73
2024/03/10 08:19:17;;;;;;;23.02;12.15;;;;;;;6.73;55.50;100462.77;1680018;85;21123;-73
2024/03/10 08:21:46;;;;;;;25.68;11.25;;;;;;;7.20;54.52;100466.98;1680990;85;21139;-73
2024/03/10 08:24:15;;;;;;;17.85;9.68;;;;;;;7.68;53.08;100462.38;1679895;85;21771;-73
2024/03/10 08:26:44;;;;;;;22.90;11.28;;;;;;;8.11;51.70;100463.19;1684278;85;21661;-74
2024/03/10 08:29:13;;;;;;;24.25;10.90;;;;;;;8.51;50.26;100470.81;1682423;85;21178;-75
2024/03/10 08:31:42;;;;;;;21.65;11.35;;;;;;;8.81;49.19;100467.66;1679974;85;21153;-73
2024/03/10 08:34:11;;;;;;;19.75;11.43;;;;;;;9.12;48.15;100468.41;1679898;84;21290;-73
2024/03/10 08:36:40;;;;;;;23.20;11.45;;;;;;;9.39;46.93;100479.73;1681065;84;21203;-73
2024/03/10 08:39:09;;;;;;;18.55;10.75;;;;;;;9.50;46.38;100488.84;1679834;85;21243;-75
2024/03/10 08:41:38;;;;;;;17.42;10.95;;;;;;;9.63;46.28;100491.75;1681184;85;21636;-74
2024/03/10 08:44:07;;;;;;;20.15;11.25;;;;;;;9.74;45.76;100483.06;1679927;85;21142;-72
2024/03/10 08:46:37;;;;;;;22.93;11.08;;;;;;;9.95;45.62;100485.57;1681105;84;21190;-73
2024/03/10 08:49:08;;;;;;;21.60;10.65;;;;;;;10.21;45.26;100494.13;1681687;85;21158;-73
2024/03/10 08:51:38;;;;;;;18.60;11.35;;;;;;;10.39;43.96;100492.33;1682856;84;21143;-74
2024/03/10 08:54:07;;;;;;;21.15;11.20;;;;;;;10.37;43.75;100491.67;1679948;85;21135;-74
2024/03/10 08:56:39;;;;;;;24.92;11.93;;;;;;;10.35;44.28;100493.23;1679948;85;21711;-74
2024/03/10 08:59:30;;;;;;;20.52;11.70;;;;;;;10.34;43.56;100504.38;1681665;84;21589;-73
2024/03/10 09:02:08;;;;;;;16.42;9.90;;;;;;;10.19;43.59;100503.02;1680320;84;21126;-73
2024/03/10 09:04:37;;;;;;;25.52;11.65;;;;;;;9.92;43.93;100504.59;1655929;85;21115;-75
2024/03/10 09:07:08;;;;;;;21.60;11.53;;;;;;;9.72;44.33;100504.81;1680000;85;21135;-74
2024/03/10 09:09:37;;;;;;;19.70;11.35;;;;;;;9.49;44.47;100511.23;1680034;85;21170;-74
2024/03/10 09:12:07;;;;;;;21.02;10.58;;;;;;;9.23;44.95;100504.52;1682802;85;21146;-74
2024/03/10 09:14:37;;;;;;;22.62;10.08;;;;;;;9.00;45.29;100514.95;1680023;85;21139;-73
2024/03/10 09:17:08;;;;;;;19.02;9.50;;;;;;;8.84;45.58;100500.92;1669935;85;21176;-74
2024/03/10 09:19:40;;;;;;;19.32;9.60;;;;;;;8.77;45.83;100511.41;1671420;84;21130;-74
2024/03/10 09:22:10;;;;;;;19.17;9.03;;;;;;;8.72;45.45;100509.73;1670178;85;21231;-79
2024/03/10 09:24:39;;;;;;;19.32;9.25;;;;;;;8.62;46.12;100507.77;1679363;85;21230;-75
2024/03/10 09:27:08;;;;;;;17.60;9.10;;;;;;;8.54;46.38;100504.06;1665820;85;21237;-74
2024/03/10 09:29:38;;;;;;;16.87;8.03;;;;;;;8.50;46.09;100505.98;1664630;86;21211;-75
2024/03/10 09:32:07;;;;;;;19.80;7.90;;;;;;;8.42;45.60;100504.13;1665222;86;21146;-75
2024/03/10 09:34:37;;;;;;;15.03;7.70;;;;;;;8.30;45.71;100510.15;1671778;85;21149;-75
2024/03/10 09:37:06;;;;;;;15.72;7.97;;;;;;;8.17;45.73;100507.49;1679696;85;21187;-75
2024/03/10 09:39:35;;;;;;;14.65;7.37;;;;;;;8.03;45.95;100504.67;1679683;85;21176;-75
2024/03/10 09:42:04;;;;;;;13.15;7.12;;;;;;;7.92;46.26;100500.47;1679803;85;21263;-76
2024/03/10 09:44:33;;;;;;;14.50;7.47;;;;;;;7.88;46.38;100502.70;1679865;85;21205;-77
2024/03/10 09:47:06;;;;;;;13.05;6.30;;;;;;;7.84;46.30;100500.00;1676820;84;21252;-77
2024/03/10 09:49:33;;;;;;;15.70;7.20;;;;;;;7.83;46.32;100505.12;1679472;85;21192;-74
2024/03/10 09:52:02;;;;;;;13.60;6.97;;;;;;;7.82;46.43;100499.33;1653681;85;21264;-75
2024/03/10 09:54:31;;;;;;;14.18;6.87;;;;;;;7.78;46.31;100502.03;1637142;86;21129;-74
2024/03/10 09:57:00;;;;;;;15.70;6.33;;;;;;;7.76;46.71;100504.09;1642150;85;21173;-74
2024/03/10 09:59:44;;;;;;;13.15;6.45;;;;;;;7.73;46.47;100501.72;1642195;86;21559;-74
2024/03/10 10:02:26;;;;;;;15.10;6.58;;;;;;;7.70;46.51;100507.53;1656164;85;21117;-79
2024/03/10 10:04:59;;;;;;;15.10;6.65;;;;;;;7.71;47.54;100507.86;1637883;86;21148;-79
2024/03/10 10:07:27;;;;;;;12.43;6.15;;;;;;;7.77;47.00;100501.70;1635240;85;21445;-78
2024/03/10 10:09:58;;;;;;;13.05;6.45;;;;;;;7.76;46.87;100505.45;1644827;86;21181;-77
2024/03/10 10:12:27;;;;;;;16.45;6.87;;;;;;;7.75;46.58;100501.55;1637349;85;21185;-77
2024/03/10 10:14:56;;;;;;;13.25;6.72;;;;;;;7.73;49.22;100496.27;1637217;87;21165;-78
2024/03/10 10:17:25;;;;;;;11.68;6.75;;;;;;;7.82;47.88;100499.33;1635674;85;21177;-78
2024/03/10 10:19:55;;;;;;;12.68;6.30;;;;;;;7.82;47.39;100501.20;1635252;85;21192;-79
2024/03/10 10:22:25;;;;;;;15.32;7.25;;;;;;;7.80;46.88;100502.74;1635219;85;21660;-76
2024/03/10 10:25:04;;;;;;;13.25;5.70;;;;;;;7.73;46.87;100498.14;1641511;85;21173;-78
2024/03/10 10:27:50;;;;;;;14.45;6.50;;;;;;;7.68;46.81;100501.40;1686783;85;21174;-78
2024/03/10 10:30:25;;;;;;;12.20;6.62;;;;;;;7.61;46.87;100495.80;1687183;84;21229;-79
2024/03/10 10:33:08;;;;;;;13.72;6.45;;;;;;;7.57;47.03;100497.18;1691802;85;21135;-78
2024/03/10 10:35:42;;;;;;;12.03;6.28;;;;;;;7.52;47.04;100489.19;1690718;84;21656;-79
2024/03/10 10:38:13;;;;;;;12.63;6.72;;;;;;;7.52;47.07;100491.92;1687089;85;21146;-80
2024/03/10 10:40:51;;;;;;;10.13;5.47;;;;;;;7.50;47.18;100492.61;1687619;84;21158;-80
2024/03/10 10:43:17;;;;;;;11.10;5.75;;;;;;;7.51;47.18;100493.80;1687070;85;21146;-73
2024/03/10 10:45:46;;;;;;;13.55;5.92;;;;;;;7.53;47.15;100486.80;1687543;85;21151;-76
2024/03/10 10:48:18;;;;;;;11.08;4.92;;;;;;;7.53;46.98;100493.63;1686966;84;21681;-76
2024/03/10 10:50:51;;;;;;;11.38;5.00;;;;;;;7.50;46.82;100493.97;1687041;85;21606;-78
2024/03/10 10:53:21;;;;;;;12.00;5.40;;;;;;;7.49;47.00;100494.99;1687523;84;21635;-76
2024/03/10 10:55:50;;;;;;;7.28;4.50;;;;;;;7.51;46.77;100492.94;1687090;85;21736;-77
2024/03/10 10:58:21;;;;;;;9.58;4.83;;;;;;;7.50;46.51;100491.25;1687014;84;21127;-77
2024/03/10 11:00:51;;;;;;;8.15;4.72;;;;;;;7.46;46.45;100496.20;1691676;84;21208;-78
2024/03/10 11:03:29;;;;;;;8.90;4.58;;;;;;;7.44;47.09;100486.49;1691565;84;21680;-76
2024/03/10 11:06:27;;;;;;;11.33;4.75;;;;;;;7.46;46.79;100493.98;1684346;85;21210;-77
2024/03/10 11:08:56;;;;;;;13.50;4.80;;;;;;;7.46;46.58;100492.62;1695251;84;21142;-77
2024/03/10 11:11:50;;;;;;;8.95;4.70;;;;;;;7.42;46.38;100481.73;1708155;84;21213;-78
2024/03/10 11:14:23;;;;;;;9.63;4.50;;;;;;;7.38;46.58;100491.28;1708430;83;21147;-77
2024/03/10 11:17:16;;;;;;;10.68;4.90;;;;;;;7.37;46.75;100485.49;1708201;84;21676;-75
2024/03/10 11:19:48;;;;;;;11.60;5.30;;;;;;;7.39;46.83;100489.75;1708262;83;21151;-77
2024/03/10 11:22:32;;;;;;;11.93;5.67;;;;;;;7.38;46.86;100497.59;1708020;84;21170;-75
2024/03/10 11:25:08;;;;;;;12.20;5.67;;;;;;;7.36;47.05;100487.88;1710690;83;21214;-76
2024/03/10 11:27:45;;;;;;;11.20;6.03;;;;;;;7.35;47.07;100492.48;1724400;82;21130;-74
2024/03/10 11:30:44;;;;;;;10.90;6.05;;;;;;;7.33;47.15;100482.78;1718020;83;21598;-75
2024/03/10 11:33:16;;;;;;;10.40;6.00;;;;;;;7.30;47.30;100489.43;1686508;84;21595;-77
2024/03/10 11:35:45;;;;;;;13.05;5.92;;;;;;;7.31;47.28;100497.95;1663872;85;21108;-77
2024/03/10 11:38:15;;;;;;;14.35;6.33;;;;;;;7.31;47.32;100487.89;1739835;81;21173;-76
2024/03/10 11:40:44;;;;;;;11.75;6.00;;;;;;;7.35;47.46;100495.20;1726549;81;21125;-76
2024/03/10 11:43:14;;;;;;;10.72;5.53;;;;;;;7.38;47.33;100496.73;1748938;80;21094;-76
2024/03/10 11:45:45;;;;;;;9.78;5.67;;;;;;;7.37;47.23;100489.07;1761297;81;21584;-75
2024/03/10 11:48:16;;;;;;;11.45;6.30;;;;;;;7.38;47.24;100498.09;1757129;81;21094;-76
2024/03/10 11:50:45;;;;;;;14.98;6.08;;;;;;;7.37;47.28;100496.40;1750771;81;21153;-75
2024/03/10 11:53:15;;;;;;;9.93;5.92;;;;;;;7.38;47.30;100502.19;1722467;82;21106;-75
2024/03/10 11:55:44;;;;;;;12.98;6.10;;;;;;;7.36;47.21;100491.45;1746000;80;21133;-76
2024/03/10 11:58:13;;;;;;;12.23;5.75;;;;;;;7.35;47.37;100485.67;1720200;82;21177;-76